Milford, Utah Weather observations

Data are for observation ending at time listed.
 Day   Time    Ave.   Ave.  Ave.  Vector   Max.   Stn.    Total    Solar   Ave.  
  of    of     Air    Rel.  Wind   Wind    Wind   Baro.  Precip.   Rad.    Soil  
Year   Day     Temp.  Hum.  Speed  Dir.    Gust   Pres.                    Temp. 
2016   (MST)    F      %     mph   deg.    mph     mb.     in.     W/m2     F   
------------------------------------------------------------------------------
 211   22:50   76.5    31    1.7   246      3.7   847.8    0.00       0    77.9
 211   23:00   75.4    32    1.6   252      3.2   847.7    0.00       0    77.9
 211   23:10   75.9    31    1.3   227      4.4   847.7    0.00       0    77.8
 211   23:20   75.8    31    2.7   187      5.0   847.6    0.00       0    77.8
 211   23:30   74.5    32    1.4   194      4.4   847.6    0.00       0    77.8
 211   23:40   73.1    35    0.8   166      3.8   847.6    0.00       0    77.7
 211   23:50   72.0    39    0.4   120      2.0   847.6    0.00       0    77.7
 212    0:00   71.1    41    0.7   254      2.0   847.6    0.00       0    77.7
 212    0:10   72.1    36    1.1   232      2.9   847.3    0.00       0    77.7
 212    0:20   73.5    33    1.2   208      3.2   847.1    0.00       0    77.7
 212    0:30   73.8    33    0.6   235      2.4   847.0    0.00       0    77.6
 212    0:40   73.8    33    1.0   226      3.8   847.0    0.00       0    77.5
 212    0:50   73.8    33    1.3   231      4.0   847.1    0.00       0    77.5
 212    1:00   73.8    33    1.4   215      4.1   847.0    0.00       0    77.5
 212    1:10   73.2    34    0.9   216      2.5   847.0    0.00       0    77.5
 212    1:20   73.3    34    0.9   201      2.7   847.0    0.00       0    77.5
 212    1:30   72.3    37    2.2   152      5.3   846.9    0.00       0    77.4
 212    1:40   69.0    45    0.7   215      2.5   846.9    0.00       0    77.3
 212    1:50   68.2    46    0.7   192      3.0   846.8    0.00       0    77.3
 212    2:00   67.9    46    1.0   173      3.7   846.7    0.00       0    77.3
 212    2:10   67.5    50    1.4   160      4.2   846.7    0.00       0    77.2
 212    2:20   66.9    51    1.5   192      4.1   846.6    0.00       0    77.2
 212    2:30   66.2    53    1.3   218      2.6   846.5    0.00       0    77.2
 212    2:40   66.2    53    0.9   212      2.3   846.3    0.00       0    77.1
 212    2:50   65.9    53    0.8   211      2.4   846.2    0.00       0    77.1
 212    3:00   65.1    54    1.1   185      2.3   846.1    0.00       0    77.1
 212    3:10   64.4    56    1.4   181      3.1   846.0    0.00       0    77.1
 212    3:20   63.5    57    1.6   180      3.0   845.9    0.00       0    77.0
 212    3:30   62.7    58    1.4   185      2.4   845.7    0.01       0    77.0
 212    3:40   62.2    57    0.0   202      1.3   845.5    0.02       0    76.9
 212    3:50   62.3    55    0.7   186      3.4   845.3    0.01       0    76.9
 212    4:00   62.8    55    0.5   207      2.8   845.2    0.01       0    76.9
 212    4:10   62.1    57    0.0   140      0.5   845.2    0.03       0    76.9
 212    4:20   62.5    56    1.2   168      3.7   845.2    0.00       0    76.8
 212    4:30   62.2    58    0.1   211      1.6   845.2    0.00       0    76.8
 212    4:40   63.1    52    0.8   216      3.4   845.2    0.00       0    76.7
 212    4:50   66.5    45    2.3   187      4.5   845.2    0.00       0    76.7
 212    5:00   66.7    45    1.2   200      3.4   845.4    0.00       0    76.6
 212    5:10   66.0    46    0.8   204      3.0   845.5    0.00       0    76.6
 212    5:20   66.4    45    1.4   232      3.6   845.6    0.00       0    76.5
 212    5:30   67.3    44    1.4   244      3.6   845.8    0.00       2    76.5
 212    5:40   68.0    43    1.3   199      5.2   846.0    0.00       3    76.4
 212    5:50   64.3    53    3.1   164      8.3   846.4    0.00       5    76.3
 212    6:00   62.4    56    1.0   210      3.5   846.4    0.00       9    76.2
 212    6:10   62.8    54    0.9   195      2.0   846.4    0.00      12    76.2
 212    6:20   62.7    54    0.9   190      2.1   846.4    0.00      19    76.2
 212    6:30   64.0    52    0.3   177      1.6   846.4    0.00      88    76.1
 212    6:40   65.3    51    0.3   146      1.6   846.5    0.00      58    76.0
 212    6:50   66.6    51    2.0   181      5.0   846.6    0.00     171    75.9
 212    7:00   67.9    51    3.1   168      5.5   846.9    0.00     192    75.8
 212    7:10   69.8    48    3.1   174      6.4   847.2    0.00     213    75.7
 212    7:20   72.4    42    2.4   186      5.1   847.4    0.00     237    75.7
 212    7:30   72.9    42    4.1   177      8.3   847.8    0.00     262    75.7
 212    7:40   72.5    42    4.0   177      8.9   848.0    0.00     290    75.6
 212    7:50   73.0    42    4.1   179      7.9   848.2    0.00     318    75.5
 212    8:00   73.5    40    5.4   170     10.2   848.4    0.00     345    75.5
 212    8:10   73.4    40    5.7   172     10.8   848.5    0.00     372    75.5
 212    8:20   74.8    39    6.9   170     13.0   848.6    0.00     399    75.4
 212    8:30   76.5    37    7.0   176     13.7   848.7    0.00     425    75.4
 212    8:40   78.2    40    7.5   172     15.8   848.8    0.00     448    75.3
 212    8:50   79.9    40    6.6   182     14.8   848.9    0.00     474    75.3
 212    9:00   80.5    40    6.8   181     14.8   849.1    0.00     501    75.2
 212    9:10   80.7    39    9.2   172     18.6   849.2    0.00     525    75.3
 212    9:20   81.7    38    8.0   176     17.0   849.3    0.00     546    75.3
 212    9:30   83.1    35    8.1   178     16.1   849.3    0.00     568    75.2
 212    9:40   83.1    34    8.5   179     20.5   849.4    0.00     588    75.2
 212    9:50   84.1    33    6.3   187     14.0   849.5    0.00     614    75.2
 212   10:00   84.6    32    7.8   180     19.5   849.6    0.00     634    75.2
 212   10:10   84.8    31    8.1   180     16.7   849.7    0.00     653    75.2
 212   10:20   85.7    30    7.8   177     19.3   849.7    0.00     672    75.1
 212   10:30   86.2    30    8.6   177     16.4   849.7    0.00     691    75.1
 212   10:40   87.1    29    6.9   184     14.8   849.7    0.00     705    75.1
 212   10:50   87.7    29    8.4   174     19.1   849.7    0.00     721    75.1
 212   11:00   88.4    28    7.6   181     20.2   849.7    0.00     739    75.1
 212   11:10   88.8    27    7.7   179     14.3   849.6    0.00     757    75.1
 212   11:20   88.9    27    8.3   174     16.4   849.6    0.00     632    75.1
 212   11:30   89.3    26    8.2   176     18.8   849.5    0.00     765    75.2
 212   11:40   90.2    26    7.1   179     17.0   849.5    0.00     746    75.3
 212   11:50   90.2    26    8.9   173     19.6   849.4    0.00     786    75.3
 212   12:00   90.9    26    8.1   173     17.8   849.3    0.00     795    75.3
 212   12:10   91.3    25    8.5   171     21.4   849.2    0.00     819    75.3
 212   12:20   91.5    24    9.4   175     19.9   849.1    0.00     826    75.4
 212   12:30   91.9    24    7.8   178     15.8   849.0    0.00     842    75.4
 212   12:40   92.6    24    9.0   168     17.7   848.9    0.00     872    75.4
 212   12:50   92.0    24    9.4   174     22.1   848.9    0.00     932    75.5
 212   13:00   92.4    24    7.2   174     16.1   848.8    0.00     462    75.5
 212   13:10   90.3    24    8.9   172     20.1   848.6    0.00     338    75.5
 212   13:20   90.0    24    6.6   176     15.8   848.5    0.00     152    75.5
 212   13:30   89.7    24    6.5   170     14.2   848.3    0.00     148    75.6
 212   13:40   90.1    24    7.9   161     15.4   847.9    0.00     219    75.6
 212   13:50   91.0    24    6.6   173     14.2   847.8    0.00     313    75.7
 212   14:00   92.2    23    8.8   170     21.2   847.6    0.00     572    75.7
 212   14:10   91.8    23    8.2   174     18.1   847.5    0.00     564    75.8
 212   14:20   93.5    21    8.6   180     16.1   847.4    0.00     677    75.8
 212   14:30   92.1    22    6.7   180     15.6   847.5    0.00     242    75.9
 212   14:40   89.7    26    5.3   185     14.5   847.6    0.00     169    75.9
 212   14:50   85.5    34    3.7   124      9.5   847.7    0.00     107    76.0
 212   15:00   78.9    45    2.1   340      7.8   847.2    0.02      86    76.2
 212   15:10   78.6    41    1.1   269      3.2   846.5    0.00      69    76.3
 212   15:20   82.5    32    0.7   254      2.9   846.0    0.00      64    76.3
 212   15:30   84.1    32    3.3    34      7.2   846.0    0.00      70    76.2
 212   15:40   82.3    40    2.9    24      5.0   846.0    0.00      70    76.2
 212   15:50   82.1    36    2.9   154      7.1   846.2    0.00      46    76.2
 212   16:00   82.8    30    1.7   201      5.3   846.3    0.00      24    76.2
 212   16:10   82.1    32    5.1   171     11.3   846.5    0.00      14    76.2
 212   16:20   79.2    39    5.8   167     10.2   846.7    0.00      10    76.2
 212   16:30   76.0    45    5.0   178     11.0   846.8    0.00       9    76.3
 212   16:40   76.0    44    3.0   212      8.7   846.5    0.00      10    76.3
 212   16:50   76.1    44    2.6   238      5.4   846.3    0.00      10    76.4
 212   17:00   76.5    43    1.4   245      3.7   846.3    0.00      12    76.4
 212   17:10   76.6    44    2.2   207      5.1   846.2    0.00      17    76.4
 212   17:20   75.8    47    1.7   219      5.3   846.0    0.00      30    76.4
 212   17:30   75.8    47    2.7   205      6.8   846.0    0.00      42    76.4
 212   17:40   77.4    41    3.3   215      7.2   846.0    0.00      53    76.4
 212   17:50   78.0    40    4.1   189     12.0   845.8    0.00      59    76.4
 212   18:00   78.1    39    2.3   217      5.3   846.0    0.00      57    76.4
 212   18:10   78.9    36    2.9   190      6.9   846.1    0.00      75    76.4
 212   18:20   79.9    34    2.6   172      9.1   846.3    0.00      69    76.4
 212   18:30   80.3    31    8.7   159     16.6   846.7    0.00      60    76.4
 212   18:40   80.6    30    6.6   159     13.3   847.1    0.00      67    76.4
 212   18:50   79.8    32    5.6   174     15.6   847.6    0.00      71    76.4
 212   19:00   78.5    37    5.0   186      9.3   848.1    0.00      36    76.4
 212   19:10   75.5    46    5.0   184     11.5   848.5    0.00      17    76.4
 212   19:20   75.5    44    5.5   184     11.3   848.7    0.00       7    76.4
 212   19:30   74.8    46    4.3   187     11.0   849.0    0.00       9    76.4
 212   19:40   73.5    51    3.6   188      7.5   849.0    0.00       7    76.4
 212   19:50   72.5    53    3.2   187      6.6   848.8    0.00       1    76.4
 212   20:00   71.9    58    2.6   186      5.6   848.7    0.00       1    76.4
 212   20:10   71.1    60    1.7   212      3.7   848.9    0.00       0    76.3
 212   20:20   70.8    58    2.4   199      7.9   848.8    0.00       0    76.3
 212   20:30   71.0    55    4.2   182     10.7   848.8    0.00       0    76.3
 212   20:40   71.7    52    4.4   187      9.6   848.6    0.00       0    76.3
 212   20:50   71.4    54    4.1   186      8.1   848.6    0.00       0    76.3
 212   21:00   70.6    57    4.0   188      9.1   848.5    0.00       0    76.3
 212   21:10   70.6    56    4.0   188      9.9   848.4    0.00       0    76.3
 212   21:20   71.5    52    4.9   181     12.1   848.1    0.00       0    76.2
 212   21:30   71.6    52    2.3   237      6.8   848.4    0.00       0    76.2
 212   21:40   70.5    57    3.1   215      6.3   848.2    0.00       0    76.2
 212   21:50   70.2    57    3.6   197      6.5   847.4    0.00       0    76.1
 212   22:00   70.2    57    2.4   243      6.2   847.6    0.00       0    76.1
 212   22:10   70.0    58    1.7   225      4.3   847.8    0.00       0    76.1
 212   22:20   69.8    59    1.7   232      4.4   847.6    0.00       0    76.1
 212   22:30   69.5    61    1.8   229      4.5   847.5    0.00       0    76.0
 212   22:40   69.5    60    1.8   230      4.2   847.4    0.00       0    76.0

Return to Milford, Utah graphs page.


Western Regional Climate Center,wrcc@dri.edu